sensor_id;sensor_type;location;lat;lon;timestamp;P1;durP1;ratioP1;P2;durP2;ratioP2
18230;SDS011;9240;49.966;21.994;2024-03-02T00:00:07;35.30;;;18.70;;
18230;SDS011;9240;49.966;21.994;2024-03-02T00:02:33;32.10;;;18.47;;
18230;SDS011;9240;49.966;21.994;2024-03-02T00:05:00;34.33;;;17.87;;
18230;SDS011;9240;49.966;21.994;2024-03-02T00:07:25;30.10;;;17.23;;
18230;SDS011;9240;49.966;21.994;2024-03-02T00:09:52;32.83;;;17.37;;
18230;SDS011;9240;49.966;21.994;2024-03-02T00:12:18;30.03;;;17.10;;
18230;SDS011;9240;49.966;21.994;2024-03-02T00:14:44;34.60;;;18.17;;
18230;SDS011;9240;49.966;21.994;2024-03-02T00:17:11;31.73;;;17.50;;
18230;SDS011;9240;49.966;21.994;2024-03-02T00:19:46;31.63;;;17.87;;
18230;SDS011;9240;49.966;21.994;2024-03-02T00:22:13;29.63;;;17.67;;
18230;SDS011;9240;49.966;21.994;2024-03-02T00:24:38;33.97;;;18.33;;
18230;SDS011;9240;49.966;21.994;2024-03-02T00:27:04;33.80;;;18.00;;
18230;SDS011;9240;49.966;21.994;2024-03-02T00:29:32;30.93;;;18.17;;
18230;SDS011;9240;49.966;21.994;2024-03-02T00:31:58;31.47;;;18.27;;
18230;SDS011;9240;49.966;21.994;2024-03-02T00:34:23;30.50;;;18.27;;
18230;SDS011;9240;49.966;21.994;2024-03-02T00:36:49;36.40;;;18.17;;
18230;SDS011;9240;49.966;21.994;2024-03-02T00:39:16;33.67;;;18.80;;
18230;SDS011;9240;49.966;21.994;2024-03-02T00:41:41;32.80;;;18.87;;
18230;SDS011;9240;49.966;21.994;2024-03-02T00:44:07;32.93;;;18.60;;
18230;SDS011;9240;49.966;21.994;2024-03-02T00:46:34;36.27;;;18.33;;
18230;SDS011;9240;49.966;21.994;2024-03-02T00:49:01;30.97;;;17.67;;
18230;SDS011;9240;49.966;21.994;2024-03-02T00:51:27;32.83;;;18.60;;
18230;SDS011;9240;49.966;21.994;2024-03-02T00:53:55;32.60;;;18.33;;
18230;SDS011;9240;49.966;21.994;2024-03-02T00:56:24;32.47;;;18.33;;
18230;SDS011;9240;49.966;21.994;2024-03-02T00:58:50;33.40;;;18.13;;
18230;SDS011;9240;49.966;21.994;2024-03-02T01:01:16;31.77;;;18.37;;
18230;SDS011;9240;49.966;21.994;2024-03-02T01:03:42;32.67;;;17.33;;
18230;SDS011;9240;49.966;21.994;2024-03-02T01:06:08;29.70;;;17.50;;
18230;SDS011;9240;49.966;21.994;2024-03-02T01:08:34;32.07;;;17.90;;
18230;SDS011;9240;49.966;21.994;2024-03-02T01:11:00;36.00;;;18.90;;
18230;SDS011;9240;49.966;21.994;2024-03-02T01:13:26;30.30;;;18.03;;
18230;SDS011;9240;49.966;21.994;2024-03-02T01:15:52;31.60;;;19.23;;
18230;SDS011;9240;49.966;21.994;2024-03-02T01:18:17;36.33;;;20.37;;
18230;SDS011;9240;49.966;21.994;2024-03-02T01:20:43;31.97;;;17.93;;
18230;SDS011;9240;49.966;21.994;2024-03-02T01:23:08;34.90;;;18.67;;
18230;SDS011;9240;49.966;21.994;2024-03-02T01:25:34;30.77;;;17.50;;
18230;SDS011;9240;49.966;21.994;2024-03-02T01:27:59;32.03;;;17.67;;
18230;SDS011;9240;49.966;21.994;2024-03-02T01:30:26;31.83;;;18.47;;
18230;SDS011;9240;49.966;21.994;2024-03-02T01:32:52;30.90;;;18.37;;
18230;SDS011;9240;49.966;21.994;2024-03-02T01:35:17;37.73;;;19.53;;
18230;SDS011;9240;49.966;21.994;2024-03-02T01:37:42;35.47;;;18.80;;
18230;SDS011;9240;49.966;21.994;2024-03-02T01:40:08;32.87;;;18.27;;
18230;SDS011;9240;49.966;21.994;2024-03-02T01:42:35;37.30;;;19.20;;
18230;SDS011;9240;49.966;21.994;2024-03-02T01:45:01;36.17;;;18.80;;
18230;SDS011;9240;49.966;21.994;2024-03-02T01:47:29;33.97;;;19.60;;
18230;SDS011;9240;49.966;21.994;2024-03-02T01:49:54;30.93;;;18.47;;
18230;SDS011;9240;49.966;21.994;2024-03-02T01:52:19;32.17;;;18.80;;
18230;SDS011;9240;49.966;21.994;2024-03-02T01:54:45;39.40;;;20.10;;
18230;SDS011;9240;49.966;21.994;2024-03-02T01:57:10;35.80;;;19.13;;
18230;SDS011;9240;49.966;21.994;2024-03-02T01:59:36;34.27;;;19.70;;
18230;SDS011;9240;49.966;21.994;2024-03-02T02:02:01;33.67;;;19.37;;
18230;SDS011;9240;49.966;21.994;2024-03-02T02:04:28;35.80;;;20.20;;
18230;SDS011;9240;49.966;21.994;2024-03-02T02:06:54;44.27;;;19.70;;
18230;SDS011;9240;49.966;21.994;2024-03-02T02:09:19;31.43;;;17.93;;
18230;SDS011;9240;49.966;21.994;2024-03-02T02:11:45;31.47;;;18.27;;
18230;SDS011;9240;49.966;21.994;2024-03-02T02:14:10;35.97;;;19.43;;
18230;SDS011;9240;49.966;21.994;2024-03-02T02:16:36;34.23;;;19.47;;
18230;SDS011;9240;49.966;21.994;2024-03-02T02:19:01;35.70;;;19.23;;
18230;SDS011;9240;49.966;21.994;2024-03-02T02:21:28;34.00;;;19.53;;
18230;SDS011;9240;49.966;21.994;2024-03-02T02:23:53;36.43;;;19.37;;
18230;SDS011;9240;49.966;21.994;2024-03-02T02:26:19;35.07;;;19.70;;
18230;SDS011;9240;49.966;21.994;2024-03-02T02:28:44;30.90;;;16.60;;
18230;SDS011;9240;49.966;21.994;2024-03-02T02:31:10;40.00;;;20.97;;
18230;SDS011;9240;49.966;21.994;2024-03-02T02:33:38;39.40;;;20.37;;
18230;SDS011;9240;49.966;21.994;2024-03-02T02:36:04;38.83;;;19.93;;
18230;SDS011;9240;49.966;21.994;2024-03-02T02:38:31;38.20;;;20.67;;
18230;SDS011;9240;49.966;21.994;2024-03-02T02:41:00;35.00;;;20.27;;
18230;SDS011;9240;49.966;21.994;2024-03-02T02:43:26;36.70;;;19.90;;
18230;SDS011;9240;49.966;21.994;2024-03-02T02:45:51;41.20;;;20.30;;
18230;SDS011;9240;49.966;21.994;2024-03-02T02:48:17;36.30;;;20.57;;
18230;SDS011;9240;49.966;21.994;2024-03-02T02:50:42;37.47;;;20.50;;
18230;SDS011;9240;49.966;21.994;2024-03-02T02:53:07;46.27;;;22.30;;
18230;SDS011;9240;49.966;21.994;2024-03-02T02:55:34;39.17;;;21.63;;
18230;SDS011;9240;49.966;21.994;2024-03-02T02:58:00;38.20;;;21.63;;
18230;SDS011;9240;49.966;21.994;2024-03-02T03:00:25;37.03;;;20.67;;
18230;SDS011;9240;49.966;21.994;2024-03-02T03:02:51;38.67;;;21.37;;
18230;SDS011;9240;49.966;21.994;2024-03-02T03:05:16;40.70;;;21.60;;
18230;SDS011;9240;49.966;21.994;2024-03-02T03:07:42;36.00;;;20.23;;
18230;SDS011;9240;49.966;21.994;2024-03-02T03:10:08;39.67;;;21.47;;
18230;SDS011;9240;49.966;21.994;2024-03-02T03:12:35;37.20;;;20.07;;
18230;SDS011;9240;49.966;21.994;2024-03-02T03:15:01;39.97;;;20.90;;
18230;SDS011;9240;49.966;21.994;2024-03-02T03:17:27;38.33;;;20.70;;
18230;SDS011;9240;49.966;21.994;2024-03-02T03:19:52;44.17;;;21.40;;
18230;SDS011;9240;49.966;21.994;2024-03-02T03:22:18;39.33;;;21.20;;
18230;SDS011;9240;49.966;21.994;2024-03-02T03:24:43;41.13;;;20.60;;
18230;SDS011;9240;49.966;21.994;2024-03-02T03:27:09;41.03;;;20.73;;
18230;SDS011;9240;49.966;21.994;2024-03-02T03:29:37;39.53;;;20.97;;
18230;SDS011;9240;49.966;21.994;2024-03-02T03:32:03;37.37;;;21.00;;
18230;SDS011;9240;49.966;21.994;2024-03-02T03:34:28;38.63;;;20.93;;
18230;SDS011;9240;49.966;21.994;2024-03-02T03:36:54;40.10;;;21.77;;
18230;SDS011;9240;49.966;21.994;2024-03-02T03:39:19;38.30;;;21.57;;
18230;SDS011;9240;49.966;21.994;2024-03-02T03:41:45;40.33;;;21.60;;
18230;SDS011;9240;49.966;21.994;2024-03-02T03:44:10;40.10;;;21.13;;
18230;SDS011;9240;49.966;21.994;2024-03-02T03:46:37;39.40;;;21.33;;
18230;SDS011;9240;49.966;21.994;2024-03-02T03:49:03;40.10;;;21.23;;
18230;SDS011;9240;49.966;21.994;2024-03-02T03:51:28;40.67;;;20.53;;
18230;SDS011;9240;49.966;21.994;2024-03-02T03:53:53;43.53;;;21.60;;
18230;SDS011;9240;49.966;21.994;2024-03-02T03:56:19;42.30;;;21.37;;
18230;SDS011;9240;49.966;21.994;2024-03-02T03:58:44;41.60;;;21.30;;
18230;SDS011;9240;49.966;21.994;2024-03-02T04:01:10;41.67;;;21.87;;
18230;SDS011;9240;49.966;21.994;2024-03-02T04:03:36;44.57;;;23.03;;
18230;SDS011;9240;49.966;21.994;2024-03-02T04:06:03;39.17;;;21.07;;
18230;SDS011;9240;49.966;21.994;2024-03-02T04:08:28;44.87;;;22.70;;
18230;SDS011;9240;49.966;21.994;2024-03-02T04:10:54;43.87;;;21.80;;
18230;SDS011;9240;49.966;21.994;2024-03-02T04:13:19;40.47;;;21.93;;
18230;SDS011;9240;49.966;21.994;2024-03-02T04:15:45;40.90;;;22.00;;
18230;SDS011;9240;49.966;21.994;2024-03-02T04:18:10;35.90;;;20.37;;
18230;SDS011;9240;49.966;21.994;2024-03-02T04:20:37;41.87;;;21.57;;
18230;SDS011;9240;49.966;21.994;2024-03-02T04:23:03;45.53;;;22.63;;
18230;SDS011;9240;49.966;21.994;2024-03-02T04:25:28;46.30;;;22.60;;
18230;SDS011;9240;49.966;21.994;2024-03-02T04:27:54;45.00;;;22.43;;
18230;SDS011;9240;49.966;21.994;2024-03-02T04:30:19;41.80;;;22.80;;
18230;SDS011;9240;49.966;21.994;2024-03-02T04:32:45;42.93;;;23.23;;
18230;SDS011;9240;49.966;21.994;2024-03-02T04:35:10;44.33;;;22.70;;
18230;SDS011;9240;49.966;21.994;2024-03-02T04:37:37;40.10;;;21.90;;
18230;SDS011;9240;49.966;21.994;2024-03-02T04:40:03;43.13;;;21.47;;
18230;SDS011;9240;49.966;21.994;2024-03-02T04:42:29;42.90;;;21.83;;
18230;SDS011;9240;49.966;21.994;2024-03-02T04:44:54;44.07;;;22.60;;
18230;SDS011;9240;49.966;21.994;2024-03-02T04:47:20;44.87;;;22.90;;
18230;SDS011;9240;49.966;21.994;2024-03-02T04:49:45;49.03;;;24.07;;
18230;SDS011;9240;49.966;21.994;2024-03-02T04:52:11;42.70;;;22.77;;
18230;SDS011;9240;49.966;21.994;2024-03-02T04:54:38;42.67;;;22.33;;
18230;SDS011;9240;49.966;21.994;2024-03-02T04:57:03;47.47;;;23.07;;
18230;SDS011;9240;49.966;21.994;2024-03-02T04:59:29;45.50;;;23.43;;
18230;SDS011;9240;49.966;21.994;2024-03-02T05:01:54;48.40;;;23.40;;
18230;SDS011;9240;49.966;21.994;2024-03-02T05:04:20;48.03;;;24.23;;
18230;SDS011;9240;49.966;21.994;2024-03-02T05:06:45;45.93;;;22.73;;
18230;SDS011;9240;49.966;21.994;2024-03-02T05:09:11;47.83;;;24.50;;
18230;SDS011;9240;49.966;21.994;2024-03-02T05:11:37;49.07;;;24.50;;
18230;SDS011;9240;49.966;21.994;2024-03-02T05:14:03;41.97;;;22.67;;
18230;SDS011;9240;49.966;21.994;2024-03-02T05:16:28;41.90;;;23.17;;
18230;SDS011;9240;49.966;21.994;2024-03-02T05:18:54;43.53;;;22.80;;
18230;SDS011;9240;49.966;21.994;2024-03-02T05:21:19;44.73;;;23.00;;
18230;SDS011;9240;49.966;21.994;2024-03-02T05:23:44;45.50;;;22.80;;
18230;SDS011;9240;49.966;21.994;2024-03-02T05:26:10;45.30;;;23.90;;
18230;SDS011;9240;49.966;21.994;2024-03-02T05:28:37;47.97;;;23.90;;
18230;SDS011;9240;49.966;21.994;2024-03-02T05:31:03;49.87;;;25.13;;
18230;SDS011;9240;49.966;21.994;2024-03-02T05:33:28;43.33;;;23.10;;
18230;SDS011;9240;49.966;21.994;2024-03-02T05:35:54;43.07;;;23.33;;
18230;SDS011;9240;49.966;21.994;2024-03-02T05:38:19;46.07;;;23.47;;
18230;SDS011;9240;49.966;21.994;2024-03-02T05:40:44;50.07;;;24.50;;
18230;SDS011;9240;49.966;21.994;2024-03-02T05:43:10;46.30;;;24.17;;
18230;SDS011;9240;49.966;21.994;2024-03-02T05:45:37;45.97;;;23.83;;
18230;SDS011;9240;49.966;21.994;2024-03-02T05:48:02;45.77;;;23.53;;
18230;SDS011;9240;49.966;21.994;2024-03-02T05:50:28;45.37;;;23.83;;
18230;SDS011;9240;49.966;21.994;2024-03-02T05:52:53;54.37;;;25.47;;
18230;SDS011;9240;49.966;21.994;2024-03-02T05:55:19;54.90;;;25.50;;
18230;SDS011;9240;49.966;21.994;2024-03-02T05:57:44;43.00;;;23.53;;
18230;SDS011;9240;49.966;21.994;2024-03-02T06:00:10;56.03;;;26.20;;
18230;SDS011;9240;49.966;21.994;2024-03-02T06:02:40;47.20;;;24.47;;
18230;SDS011;9240;49.966;21.994;2024-03-02T06:05:05;44.33;;;23.07;;
18230;SDS011;9240;49.966;21.994;2024-03-02T06:07:31;49.13;;;24.50;;
18230;SDS011;9240;49.966;21.994;2024-03-02T06:09:56;51.63;;;25.67;;
18230;SDS011;9240;49.966;21.994;2024-03-02T06:12:22;46.80;;;25.13;;
18230;SDS011;9240;49.966;21.994;2024-03-02T06:14:47;48.50;;;24.33;;
18230;SDS011;9240;49.966;21.994;2024-03-02T06:17:12;46.40;;;23.83;;
18230;SDS011;9240;49.966;21.994;2024-03-02T06:19:39;48.10;;;24.93;;
18230;SDS011;9240;49.966;21.994;2024-03-02T06:22:05;48.87;;;24.47;;
18230;SDS011;9240;49.966;21.994;2024-03-02T06:24:30;49.73;;;24.40;;
18230;SDS011;9240;49.966;21.994;2024-03-02T06:26:56;45.77;;;24.17;;
18230;SDS011;9240;49.966;21.994;2024-03-02T06:29:21;53.93;;;24.87;;
18230;SDS011;9240;49.966;21.994;2024-03-02T06:31:47;46.87;;;24.37;;
18230;SDS011;9240;49.966;21.994;2024-03-02T06:34:12;47.13;;;25.00;;
18230;SDS011;9240;49.966;21.994;2024-03-02T06:36:39;45.83;;;23.33;;
18230;SDS011;9240;49.966;21.994;2024-03-02T06:39:05;46.77;;;23.87;;
18230;SDS011;9240;49.966;21.994;2024-03-02T06:41:30;47.97;;;24.23;;
18230;SDS011;9240;49.966;21.994;2024-03-02T06:43:56;45.40;;;23.83;;
18230;SDS011;9240;49.966;21.994;2024-03-02T06:46:21;44.13;;;23.17;;
18230;SDS011;9240;49.966;21.994;2024-03-02T06:48:46;45.07;;;24.17;;
18230;SDS011;9240;49.966;21.994;2024-03-02T06:51:12;49.57;;;23.87;;
18230;SDS011;9240;49.966;21.994;2024-03-02T06:53:39;47.40;;;23.93;;
18230;SDS011;9240;49.966;21.994;2024-03-02T06:56:04;52.63;;;25.20;;
18230;SDS011;9240;49.966;21.994;2024-03-02T06:58:31;50.67;;;24.50;;
18230;SDS011;9240;49.966;21.994;2024-03-02T07:00:57;48.80;;;23.73;;
18230;SDS011;9240;49.966;21.994;2024-03-02T07:03:22;54.40;;;25.37;;
18230;SDS011;9240;49.966;21.994;2024-03-02T07:05:47;47.83;;;24.10;;
18230;SDS011;9240;49.966;21.994;2024-03-02T07:08:13;51.07;;;24.87;;
18230;SDS011;9240;49.966;21.994;2024-03-02T07:10:40;45.40;;;23.90;;
18230;SDS011;9240;49.966;21.994;2024-03-02T07:13:05;52.67;;;25.07;;
18230;SDS011;9240;49.966;21.994;2024-03-02T07:15:31;44.57;;;24.23;;
18230;SDS011;9240;49.966;21.994;2024-03-02T07:17:56;45.13;;;22.63;;
18230;SDS011;9240;49.966;21.994;2024-03-02T07:20:21;45.40;;;23.23;;
18230;SDS011;9240;49.966;21.994;2024-03-02T07:22:47;46.60;;;23.90;;
18230;SDS011;9240;49.966;21.994;2024-03-02T07:25:12;51.27;;;24.90;;
18230;SDS011;9240;49.966;21.994;2024-03-02T07:27:39;48.17;;;24.10;;
18230;SDS011;9240;49.966;21.994;2024-03-02T07:30:06;49.23;;;24.77;;
18230;SDS011;9240;49.966;21.994;2024-03-02T07:32:32;49.93;;;25.07;;
18230;SDS011;9240;49.966;21.994;2024-03-02T07:34:57;47.83;;;24.40;;
18230;SDS011;9240;49.966;21.994;2024-03-02T07:37:23;43.77;;;23.60;;
18230;SDS011;9240;49.966;21.994;2024-03-02T07:39:48;53.10;;;24.77;;
18230;SDS011;9240;49.966;21.994;2024-03-02T07:42:14;46.50;;;23.47;;
18230;SDS011;9240;49.966;21.994;2024-03-02T07:44:41;47.30;;;24.43;;
18230;SDS011;9240;49.966;21.994;2024-03-02T07:47:06;54.87;;;27.17;;
18230;SDS011;9240;49.966;21.994;2024-03-02T07:49:32;50.10;;;24.23;;
18230;SDS011;9240;49.966;21.994;2024-03-02T07:51:57;60.47;;;30.00;;
18230;SDS011;9240;49.966;21.994;2024-03-02T07:54:23;65.03;;;31.47;;
18230;SDS011;9240;49.966;21.994;2024-03-02T07:56:48;47.23;;;24.43;;
18230;SDS011;9240;49.966;21.994;2024-03-02T07:59:14;54.87;;;25.90;;
18230;SDS011;9240;49.966;21.994;2024-03-02T08:01:40;51.40;;;27.13;;
18230;SDS011;9240;49.966;21.994;2024-03-02T08:04:06;43.03;;;24.50;;
18230;SDS011;9240;49.966;21.994;2024-03-02T08:06:32;50.77;;;24.53;;
18230;SDS011;9240;49.966;21.994;2024-03-02T08:08:58;51.40;;;26.47;;
18230;SDS011;9240;49.966;21.994;2024-03-02T08:11:24;50.30;;;25.80;;
18230;SDS011;9240;49.966;21.994;2024-03-02T08:13:49;45.10;;;25.63;;
18230;SDS011;9240;49.966;21.994;2024-03-02T08:16:15;45.73;;;24.47;;
18230;SDS011;9240;49.966;21.994;2024-03-02T08:18:42;41.43;;;22.50;;
18230;SDS011;9240;49.966;21.994;2024-03-02T08:21:08;46.77;;;24.47;;
18230;SDS011;9240;49.966;21.994;2024-03-02T08:23:33;43.85;;;23.65;;
18230;SDS011;9240;49.966;21.994;2024-03-02T08:25:59;47.70;;;24.93;;
18230;SDS011;9240;49.966;21.994;2024-03-02T08:28:24;45.57;;;24.03;;
18230;SDS011;9240;49.966;21.994;2024-03-02T08:30:50;46.43;;;25.03;;
18230;SDS011;9240;49.966;21.994;2024-03-02T08:33:15;50.23;;;25.17;;
18230;SDS011;9240;49.966;21.994;2024-03-02T08:35:42;51.47;;;25.03;;
18230;SDS011;9240;49.966;21.994;2024-03-02T08:38:08;50.70;;;26.40;;
18230;SDS011;9240;49.966;21.994;2024-03-02T08:40:33;47.53;;;25.60;;
18230;SDS011;9240;49.966;21.994;2024-03-02T08:42:59;47.23;;;24.00;;
18230;SDS011;9240;49.966;21.994;2024-03-02T08:45:24;45.13;;;24.13;;
18230;SDS011;9240;49.966;21.994;2024-03-02T08:47:50;43.77;;;22.97;;
18230;SDS011;9240;49.966;21.994;2024-03-02T08:50:15;46.33;;;24.00;;
18230;SDS011;9240;49.966;21.994;2024-03-02T08:52:42;44.92;;;22.92;;
18230;SDS011;9240;49.966;21.994;2024-03-02T08:55:08;44.67;;;23.60;;
18230;SDS011;9240;49.966;21.994;2024-03-02T08:57:33;52.83;;;23.80;;
18230;SDS011;9240;49.966;21.994;2024-03-02T08:59:59;45.67;;;23.43;;
18230;SDS011;9240;49.966;21.994;2024-03-02T09:02:25;46.80;;;23.40;;
18230;SDS011;9240;49.966;21.994;2024-03-02T09:04:51;44.80;;;23.40;;
18230;SDS011;9240;49.966;21.994;2024-03-02T09:07:17;45.37;;;23.60;;
18230;SDS011;9240;49.966;21.994;2024-03-02T09:09:44;46.30;;;23.93;;
18230;SDS011;9240;49.966;21.994;2024-03-02T09:12:10;44.00;;;23.63;;
18230;SDS011;9240;49.966;21.994;2024-03-02T09:14:35;47.57;;;24.53;;
18230;SDS011;9240;49.966;21.994;2024-03-02T09:17:01;44.83;;;24.40;;
18230;SDS011;9240;49.966;21.994;2024-03-02T09:19:27;49.73;;;25.20;;
18230;SDS011;9240;49.966;21.994;2024-03-02T09:21:52;45.55;;;25.38;;
18230;SDS011;9240;49.966;21.994;2024-03-02T09:24:18;48.83;;;25.02;;
18230;SDS011;9240;49.966;21.994;2024-03-02T09:26:44;49.10;;;25.20;;
18230;SDS011;9240;49.966;21.994;2024-03-02T09:29:10;49.07;;;26.37;;
18230;SDS011;9240;49.966;21.994;2024-03-02T09:31:38;51.70;;;28.07;;
18230;SDS011;9240;49.966;21.994;2024-03-02T09:34:04;46.73;;;25.70;;
18230;SDS011;9240;49.966;21.994;2024-03-02T09:36:30;50.77;;;27.83;;
18230;SDS011;9240;49.966;21.994;2024-03-02T09:38:55;49.80;;;26.60;;
18230;SDS011;9240;49.966;21.994;2024-03-02T09:41:20;48.27;;;26.43;;
18230;SDS011;9240;49.966;21.994;2024-03-02T09:43:47;48.83;;;26.73;;
18230;SDS011;9240;49.966;21.994;2024-03-02T09:46:13;51.43;;;27.63;;
18230;SDS011;9240;49.966;21.994;2024-03-02T09:48:40;54.33;;;29.27;;
18230;SDS011;9240;49.966;21.994;2024-03-02T09:51:05;51.83;;;27.33;;
18230;SDS011;9240;49.966;21.994;2024-03-02T09:53:31;52.40;;;26.27;;
18230;SDS011;9240;49.966;21.994;2024-03-02T09:55:57;45.83;;;25.55;;
18230;SDS011;9240;49.966;21.994;2024-03-02T09:58:23;57.87;;;27.90;;
18230;SDS011;9240;49.966;21.994;2024-03-02T10:00:50;50.80;;;27.07;;
18230;SDS011;9240;49.966;21.994;2024-03-02T10:03:16;52.13;;;26.40;;
18230;SDS011;9240;49.966;21.994;2024-03-02T10:05:43;50.63;;;26.50;;
18230;SDS011;9240;49.966;21.994;2024-03-02T10:08:09;51.60;;;26.88;;
18230;SDS011;9240;49.966;21.994;2024-03-02T10:10:35;53.85;;;28.33;;
18230;SDS011;9240;49.966;21.994;2024-03-02T10:13:03;50.50;;;26.55;;
18230;SDS011;9240;49.966;21.994;2024-03-02T10:15:29;53.05;;;29.02;;
18230;SDS011;9240;49.966;21.994;2024-03-02T10:17:56;55.40;;;30.00;;
18230;SDS011;9240;49.966;21.994;2024-03-02T10:20:22;63.78;;;31.88;;
18230;SDS011;9240;49.966;21.994;2024-03-02T10:22:47;52.60;;;29.67;;
18230;SDS011;9240;49.966;21.994;2024-03-02T10:25:27;57.58;;;29.63;;
18230;SDS011;9240;49.966;21.994;2024-03-02T10:27:56;62.65;;;33.05;;
18230;SDS011;9240;49.966;21.994;2024-03-02T10:30:22;68.40;;;34.50;;
18230;SDS011;9240;49.966;21.994;2024-03-02T10:32:48;67.78;;;31.23;;
18230;SDS011;9240;49.966;21.994;2024-03-02T10:35:16;63.47;;;30.15;;
18230;SDS011;9240;49.966;21.994;2024-03-02T10:37:41;61.50;;;31.48;;
18230;SDS011;9240;49.966;21.994;2024-03-02T10:40:07;69.73;;;33.00;;
18230;SDS011;9240;49.966;21.994;2024-03-02T10:42:36;77.47;;;39.10;;
18230;SDS011;9240;49.966;21.994;2024-03-02T10:45:03;88.25;;;42.75;;
18230;SDS011;9240;49.966;21.994;2024-03-02T10:47:30;86.80;;;39.58;;
18230;SDS011;9240;49.966;21.994;2024-03-02T10:49:58;74.53;;;36.83;;
18230;SDS011;9240;49.966;21.994;2024-03-02T10:52:27;89.35;;;40.13;;
18230;SDS011;9240;49.966;21.994;2024-03-02T10:54:52;95.75;;;41.45;;
18230;SDS011;9240;49.966;21.994;2024-03-02T10:57:18;82.05;;;37.78;;
18230;SDS011;9240;49.966;21.994;2024-03-02T10:59:48;70.32;;;32.80;;
18230;SDS011;9240;49.966;21.994;2024-03-02T11:02:17;67.00;;;33.53;;
18230;SDS011;9240;49.966;21.994;2024-03-02T11:04:46;74.00;;;35.10;;
18230;SDS011;9240;49.966;21.994;2024-03-02T11:07:14;60.97;;;32.10;;
18230;SDS011;9240;49.966;21.994;2024-03-02T11:09:45;81.05;;;40.17;;
18230;SDS011;9240;49.966;21.994;2024-03-02T11:12:19;62.30;;;34.03;;
18230;SDS011;9240;49.966;21.994;2024-03-02T11:14:48;62.83;;;32.45;;
18230;SDS011;9240;49.966;21.994;2024-03-02T11:17:15;67.65;;;36.25;;
18230;SDS011;9240;49.966;21.994;2024-03-02T11:19:42;63.65;;;35.72;;
18230;SDS011;9240;49.966;21.994;2024-03-02T11:22:09;59.85;;;31.92;;
18230;SDS011;9240;49.966;21.994;2024-03-02T11:24:35;64.75;;;34.47;;
18230;SDS011;9240;49.966;21.994;2024-03-02T11:27:03;61.20;;;35.00;;
18230;SDS011;9240;49.966;21.994;2024-03-02T11:29:45;58.65;;;32.70;;
18230;SDS011;9240;49.966;21.994;2024-03-02T11:32:20;76.78;;;39.42;;
18230;SDS011;9240;49.966;21.994;2024-03-02T11:34:47;60.92;;;33.45;;
18230;SDS011;9240;49.966;21.994;2024-03-02T11:37:13;56.20;;;31.65;;
18230;SDS011;9240;49.966;21.994;2024-03-02T11:39:40;53.92;;;30.30;;
18230;SDS011;9240;49.966;21.994;2024-03-02T11:42:07;57.80;;;28.33;;
18230;SDS011;9240;49.966;21.994;2024-03-02T11:44:33;59.10;;;31.45;;
18230;SDS011;9240;49.966;21.994;2024-03-02T11:46:59;56.40;;;30.85;;
18230;SDS011;9240;49.966;21.994;2024-03-02T11:49:36;55.40;;;30.05;;
18230;SDS011;9240;49.966;21.994;2024-03-02T11:52:02;55.55;;;29.17;;
18230;SDS011;9240;49.966;21.994;2024-03-02T11:54:30;53.83;;;29.60;;
18230;SDS011;9240;49.966;21.994;2024-03-02T11:56:58;78.32;;;35.72;;
18230;SDS011;9240;49.966;21.994;2024-03-02T11:59:32;174.95;;;67.97;;
18230;SDS011;9240;49.966;21.994;2024-03-02T12:01:58;65.07;;;36.45;;
18230;SDS011;9240;49.966;21.994;2024-03-02T12:04:24;58.33;;;30.02;;
18230;SDS011;9240;49.966;21.994;2024-03-02T12:06:53;56.63;;;31.83;;
18230;SDS011;9240;49.966;21.994;2024-03-02T12:09:20;54.65;;;29.80;;
18230;SDS011;9240;49.966;21.994;2024-03-02T12:11:45;53.08;;;28.50;;
18230;SDS011;9240;49.966;21.994;2024-03-02T12:14:11;63.78;;;32.60;;
18230;SDS011;9240;49.966;21.994;2024-03-02T12:16:38;74.63;;;37.83;;
18230;SDS011;9240;49.966;21.994;2024-03-02T12:19:03;82.30;;;38.70;;
18230;SDS011;9240;49.966;21.994;2024-03-02T12:21:29;55.08;;;28.58;;
18230;SDS011;9240;49.966;21.994;2024-03-02T12:23:54;59.35;;;30.10;;
18230;SDS011;9240;49.966;21.994;2024-03-02T12:26:21;83.10;;;37.38;;
18230;SDS011;9240;49.966;21.994;2024-03-02T12:28:47;70.63;;;32.78;;
18230;SDS011;9240;49.966;21.994;2024-03-02T12:31:13;64.68;;;32.47;;
18230;SDS011;9240;49.966;21.994;2024-03-02T12:33:40;55.38;;;28.92;;
18230;SDS011;9240;49.966;21.994;2024-03-02T12:36:09;59.95;;;29.77;;
18230;SDS011;9240;49.966;21.994;2024-03-02T12:38:35;57.10;;;29.70;;
18230;SDS011;9240;49.966;21.994;2024-03-02T12:41:00;46.55;;;26.00;;
18230;SDS011;9240;49.966;21.994;2024-03-02T12:43:29;48.85;;;26.20;;
18230;SDS011;9240;49.966;21.994;2024-03-02T12:45:55;52.05;;;27.88;;
18230;SDS011;9240;49.966;21.994;2024-03-02T12:48:20;53.70;;;28.20;;
18230;SDS011;9240;49.966;21.994;2024-03-02T12:50:47;49.72;;;28.13;;
18230;SDS011;9240;49.966;21.994;2024-03-02T12:53:16;49.40;;;27.90;;
18230;SDS011;9240;49.966;21.994;2024-03-02T12:55:41;53.33;;;29.15;;
18230;SDS011;9240;49.966;21.994;2024-03-02T12:58:07;53.88;;;28.98;;
18230;SDS011;9240;49.966;21.994;2024-03-02T13:00:32;53.05;;;29.73;;
18230;SDS011;9240;49.966;21.994;2024-03-02T13:02:58;62.85;;;31.15;;
18230;SDS011;9240;49.966;21.994;2024-03-02T13:05:23;59.97;;;32.33;;
18230;SDS011;9240;49.966;21.994;2024-03-02T13:07:50;63.03;;;32.13;;
18230;SDS011;9240;49.966;21.994;2024-03-02T13:10:16;61.45;;;33.05;;
18230;SDS011;9240;49.966;21.994;2024-03-02T13:12:42;58.97;;;32.17;;
18230;SDS011;9240;49.966;21.994;2024-03-02T13:15:08;59.85;;;32.88;;
18230;SDS011;9240;49.966;21.994;2024-03-02T13:17:34;64.70;;;33.67;;
18230;SDS011;9240;49.966;21.994;2024-03-02T13:19:59;62.10;;;32.80;;
18230;SDS011;9240;49.966;21.994;2024-03-02T13:22:25;63.38;;;33.65;;
18230;SDS011;9240;49.966;21.994;2024-03-02T13:24:53;66.43;;;34.00;;
18230;SDS011;9240;49.966;21.994;2024-03-02T13:27:18;64.57;;;32.83;;
18230;SDS011;9240;49.966;21.994;2024-03-02T13:29:44;59.78;;;32.00;;
18230;SDS011;9240;49.966;21.994;2024-03-02T13:32:09;56.03;;;32.28;;
18230;SDS011;9240;49.966;21.994;2024-03-02T13:34:35;64.82;;;32.97;;
18230;SDS011;9240;49.966;21.994;2024-03-02T13:37:00;61.53;;;33.45;;
18230;SDS011;9240;49.966;21.994;2024-03-02T13:39:26;60.88;;;34.22;;
18230;SDS011;9240;49.966;21.994;2024-03-02T13:41:53;63.63;;;35.22;;
18230;SDS011;9240;49.966;21.994;2024-03-02T13:44:18;59.78;;;32.22;;
18230;SDS011;9240;49.966;21.994;2024-03-02T13:46:44;58.88;;;32.45;;
18230;SDS011;9240;49.966;21.994;2024-03-02T13:49:10;64.43;;;35.17;;
18230;SDS011;9240;49.966;21.994;2024-03-02T13:51:35;75.95;;;38.65;;
18230;SDS011;9240;49.966;21.994;2024-03-02T13:54:01;72.55;;;36.53;;
18230;SDS011;9240;49.966;21.994;2024-03-02T13:56:26;70.57;;;37.50;;
18230;SDS011;9240;49.966;21.994;2024-03-02T13:58:53;69.03;;;36.58;;
18230;SDS011;9240;49.966;21.994;2024-03-02T14:01:19;68.95;;;37.70;;
18230;SDS011;9240;49.966;21.994;2024-03-02T14:03:44;70.45;;;37.15;;
18230;SDS011;9240;49.966;21.994;2024-03-02T14:06:10;81.25;;;37.65;;
18230;SDS011;9240;49.966;21.994;2024-03-02T14:08:36;59.70;;;32.33;;
18230;SDS011;9240;49.966;21.994;2024-03-02T14:11:01;57.47;;;33.03;;
18230;SDS011;9240;49.966;21.994;2024-03-02T14:13:27;58.13;;;31.20;;